sensor_id;sensor_type;location;lat;lon;timestamp;temperature;humidity
1129;DHT22;553;51.038;7.216;2024-01-16T00:00:41;1.40;99.90
1129;DHT22;553;51.038;7.216;2024-01-16T00:03:08;1.40;99.90
1129;DHT22;553;51.038;7.216;2024-01-16T00:05:35;1.40;99.90
1129;DHT22;553;51.038;7.216;2024-01-16T00:08:02;1.40;99.90
1129;DHT22;553;51.038;7.216;2024-01-16T00:10:28;1.40;99.90
1129;DHT22;553;51.038;7.216;2024-01-16T00:12:55;1.40;99.90
1129;DHT22;553;51.038;7.216;2024-01-16T00:15:22;1.30;99.90
1129;DHT22;553;51.038;7.216;2024-01-16T00:17:48;1.30;99.90
1129;DHT22;553;51.038;7.216;2024-01-16T00:20:15;1.40;99.90
1129;DHT22;553;51.038;7.216;2024-01-16T00:22:42;1.40;99.90
1129;DHT22;553;51.038;7.216;2024-01-16T00:25:09;1.30;99.90
1129;DHT22;553;51.038;7.216;2024-01-16T00:27:36;1.30;99.90
1129;DHT22;553;51.038;7.216;2024-01-16T00:30:04;1.20;99.90
1129;DHT22;553;51.038;7.216;2024-01-16T00:32:30;1.30;99.90
1129;DHT22;553;51.038;7.216;2024-01-16T00:34:57;1.30;99.90
1129;DHT22;553;51.038;7.216;2024-01-16T00:37:24;1.30;99.90
1129;DHT22;553;51.038;7.216;2024-01-16T00:39:51;1.40;99.90
1129;DHT22;553;51.038;7.216;2024-01-16T00:42:17;1.40;99.90
1129;DHT22;553;51.038;7.216;2024-01-16T00:44:45;1.40;99.90
1129;DHT22;553;51.038;7.216;2024-01-16T00:47:12;1.40;99.90
1129;DHT22;553;51.038;7.216;2024-01-16T00:49:38;1.50;99.90
1129;DHT22;553;51.038;7.216;2024-01-16T00:52:05;1.40;99.90
1129;DHT22;553;51.038;7.216;2024-01-16T00:54:33;1.40;99.90
1129;DHT22;553;51.038;7.216;2024-01-16T00:57:00;1.40;99.90
1129;DHT22;553;51.038;7.216;2024-01-16T00:59:26;1.40;99.90
1129;DHT22;553;51.038;7.216;2024-01-16T01:01:53;1.40;99.90
1129;DHT22;553;51.038;7.216;2024-01-16T01:04:20;1.40;99.90
1129;DHT22;553;51.038;7.216;2024-01-16T01:06:47;1.40;99.90
1129;DHT22;553;51.038;7.216;2024-01-16T01:09:13;1.40;99.90
1129;DHT22;553;51.038;7.216;2024-01-16T01:11:41;1.40;99.90
1129;DHT22;553;51.038;7.216;2024-01-16T01:14:08;1.40;99.90
1129;DHT22;553;51.038;7.216;2024-01-16T01:16:35;1.50;99.90
1129;DHT22;553;51.038;7.216;2024-01-16T01:19:02;1.40;99.90
1129;DHT22;553;51.038;7.216;2024-01-16T01:21:30;1.50;99.90
1129;DHT22;553;51.038;7.216;2024-01-16T01:23:56;1.40;99.90
1129;DHT22;553;51.038;7.216;2024-01-16T01:26:23;1.40;99.90
1129;DHT22;553;51.038;7.216;2024-01-16T01:28:50;1.40;99.90
1129;DHT22;553;51.038;7.216;2024-01-16T01:31:17;1.40;99.90
1129;DHT22;553;51.038;7.216;2024-01-16T01:33:43;1.40;99.90
1129;DHT22;553;51.038;7.216;2024-01-16T01:36:11;1.30;99.90
1129;DHT22;553;51.038;7.216;2024-01-16T01:38:38;1.30;99.90
1129;DHT22;553;51.038;7.216;2024-01-16T01:41:04;1.30;99.90
1129;DHT22;553;51.038;7.216;2024-01-16T01:43:34;1.40;99.90
1129;DHT22;553;51.038;7.216;2024-01-16T01:46:14;1.50;99.90
1129;DHT22;553;51.038;7.216;2024-01-16T01:48:43;1.50;99.90
1129;DHT22;553;51.038;7.216;2024-01-16T01:51:12;1.40;99.90
1129;DHT22;553;51.038;7.216;2024-01-16T01:53:41;1.40;99.90
1129;DHT22;553;51.038;7.216;2024-01-16T01:56:11;1.40;99.90
1129;DHT22;553;51.038;7.216;2024-01-16T01:58:41;1.40;99.90
1129;DHT22;553;51.038;7.216;2024-01-16T02:01:09;1.30;99.90
1129;DHT22;553;51.038;7.216;2024-01-16T02:03:44;1.30;99.90
1129;DHT22;553;51.038;7.216;2024-01-16T02:06:12;1.30;99.90
1129;DHT22;553;51.038;7.216;2024-01-16T02:08:39;1.20;99.90
1129;DHT22;553;51.038;7.216;2024-01-16T02:11:07;1.20;99.90
1129;DHT22;553;51.038;7.216;2024-01-16T02:13:34;1.20;99.90
1129;DHT22;553;51.038;7.216;2024-01-16T02:16:01;1.20;99.90
1129;DHT22;553;51.038;7.216;2024-01-16T02:18:29;1.30;99.90
1129;DHT22;553;51.038;7.216;2024-01-16T02:21:00;1.30;99.90
1129;DHT22;553;51.038;7.216;2024-01-16T02:23:30;1.20;99.90
1129;DHT22;553;51.038;7.216;2024-01-16T02:26:01;1.20;99.90
1129;DHT22;553;51.038;7.216;2024-01-16T02:28:29;1.10;99.90
1129;DHT22;553;51.038;7.216;2024-01-16T02:30:56;1.20;99.90
1129;DHT22;553;51.038;7.216;2024-01-16T02:33:23;1.20;99.90
1129;DHT22;553;51.038;7.216;2024-01-16T02:35:50;1.10;99.90
1129;DHT22;553;51.038;7.216;2024-01-16T02:38:17;1.20;99.90
1129;DHT22;553;51.038;7.216;2024-01-16T02:40:44;1.20;99.90
1129;DHT22;553;51.038;7.216;2024-01-16T02:43:11;1.20;99.90
1129;DHT22;553;51.038;7.216;2024-01-16T02:45:38;1.10;99.90
1129;DHT22;553;51.038;7.216;2024-01-16T02:48:04;1.10;99.90
1129;DHT22;553;51.038;7.216;2024-01-16T02:50:32;1.10;99.90
1129;DHT22;553;51.038;7.216;2024-01-16T02:52:59;1.10;99.90
1129;DHT22;553;51.038;7.216;2024-01-16T02:55:25;1.20;99.90
1129;DHT22;553;51.038;7.216;2024-01-16T02:57:52;1.20;99.90
1129;DHT22;553;51.038;7.216;2024-01-16T03:00:19;1.20;99.90
1129;DHT22;553;51.038;7.216;2024-01-16T03:02:46;1.30;99.90
1129;DHT22;553;51.038;7.216;2024-01-16T03:05:13;1.30;99.90
1129;DHT22;553;51.038;7.216;2024-01-16T03:07:41;1.30;99.90
1129;DHT22;553;51.038;7.216;2024-01-16T03:10:08;1.30;99.90
1129;DHT22;553;51.038;7.216;2024-01-16T03:12:34;1.20;99.90
1129;DHT22;553;51.038;7.216;2024-01-16T03:15:01;1.10;99.90
1129;DHT22;553;51.038;7.216;2024-01-16T03:17:28;1.20;99.90
1129;DHT22;553;51.038;7.216;2024-01-16T03:19:55;1.00;99.90
1129;DHT22;553;51.038;7.216;2024-01-16T03:22:22;1.00;99.90
1129;DHT22;553;51.038;7.216;2024-01-16T03:24:50;1.00;99.90
1129;DHT22;553;51.038;7.216;2024-01-16T03:27:17;1.00;99.90
1129;DHT22;553;51.038;7.216;2024-01-16T03:29:45;1.10;99.90
1129;DHT22;553;51.038;7.216;2024-01-16T03:32:12;1.00;99.90
1129;DHT22;553;51.038;7.216;2024-01-16T03:34:38;1.00;99.90
1129;DHT22;553;51.038;7.216;2024-01-16T03:37:07;1.00;99.90
1129;DHT22;553;51.038;7.216;2024-01-16T03:39:33;0.90;99.90
1129;DHT22;553;51.038;7.216;2024-01-16T03:42:01;1.00;99.90
1129;DHT22;553;51.038;7.216;2024-01-16T03:44:28;1.00;99.90
1129;DHT22;553;51.038;7.216;2024-01-16T03:46:55;0.90;99.90
1129;DHT22;553;51.038;7.216;2024-01-16T03:49:21;0.90;99.90
1129;DHT22;553;51.038;7.216;2024-01-16T03:51:48;0.90;99.90
1129;DHT22;553;51.038;7.216;2024-01-16T03:54:15;1.00;99.90
1129;DHT22;553;51.038;7.216;2024-01-16T03:56:42;1.00;99.90
1129;DHT22;553;51.038;7.216;2024-01-16T03:59:09;1.00;99.90
1129;DHT22;553;51.038;7.216;2024-01-16T04:01:35;1.00;99.90
1129;DHT22;553;51.038;7.216;2024-01-16T04:04:04;1.00;99.90
1129;DHT22;553;51.038;7.216;2024-01-16T04:06:33;1.00;99.90
1129;DHT22;553;51.038;7.216;2024-01-16T04:09:00;1.10;99.90
1129;DHT22;553;51.038;7.216;2024-01-16T04:11:28;1.00;99.90
1129;DHT22;553;51.038;7.216;2024-01-16T04:13:55;0.90;99.90
1129;DHT22;553;51.038;7.216;2024-01-16T04:16:22;1.00;99.90
1129;DHT22;553;51.038;7.216;2024-01-16T04:18:48;1.00;99.90
1129;DHT22;553;51.038;7.216;2024-01-16T04:21:16;1.00;99.90
1129;DHT22;553;51.038;7.216;2024-01-16T04:23:46;1.10;99.90
1129;DHT22;553;51.038;7.216;2024-01-16T04:26:14;1.10;99.90
1129;DHT22;553;51.038;7.216;2024-01-16T04:28:41;1.10;99.90
1129;DHT22;553;51.038;7.216;2024-01-16T04:31:09;1.00;99.90
1129;DHT22;553;51.038;7.216;2024-01-16T04:33:38;1.00;99.90
1129;DHT22;553;51.038;7.216;2024-01-16T04:36:06;1.00;99.90
1129;DHT22;553;51.038;7.216;2024-01-16T04:38:33;1.10;99.90
1129;DHT22;553;51.038;7.216;2024-01-16T04:41:02;1.10;99.90
1129;DHT22;553;51.038;7.216;2024-01-16T04:43:29;1.20;99.90
1129;DHT22;553;51.038;7.216;2024-01-16T04:45:56;1.10;99.90
1129;DHT22;553;51.038;7.216;2024-01-16T04:48:26;1.10;99.90
1129;DHT22;553;51.038;7.216;2024-01-16T04:50:54;1.00;99.90
1129;DHT22;553;51.038;7.216;2024-01-16T04:53:20;1.00;99.90
1129;DHT22;553;51.038;7.216;2024-01-16T04:55:47;1.00;99.90
1129;DHT22;553;51.038;7.216;2024-01-16T04:58:14;1.00;99.90
1129;DHT22;553;51.038;7.216;2024-01-16T05:00:41;1.00;99.90
1129;DHT22;553;51.038;7.216;2024-01-16T05:03:07;0.90;99.90
1129;DHT22;553;51.038;7.216;2024-01-16T05:05:34;0.80;99.90
1129;DHT22;553;51.038;7.216;2024-01-16T05:08:01;0.90;99.90
1129;DHT22;553;51.038;7.216;2024-01-16T05:10:29;0.90;99.90
1129;DHT22;553;51.038;7.216;2024-01-16T05:12:58;0.90;99.90
1129;DHT22;553;51.038;7.216;2024-01-16T05:15:25;1.00;99.90
1129;DHT22;553;51.038;7.216;2024-01-16T05:17:52;0.90;99.90
1129;DHT22;553;51.038;7.216;2024-01-16T05:20:20;1.10;99.90
1129;DHT22;553;51.038;7.216;2024-01-16T05:22:47;1.00;99.90
1129;DHT22;553;51.038;7.216;2024-01-16T05:25:14;1.20;99.90
1129;DHT22;553;51.038;7.216;2024-01-16T05:27:43;1.10;99.90
1129;DHT22;553;51.038;7.216;2024-01-16T05:30:10;1.00;99.90
1129;DHT22;553;51.038;7.216;2024-01-16T05:32:37;1.10;99.90
1129;DHT22;553;51.038;7.216;2024-01-16T05:35:07;1.20;99.90
1129;DHT22;553;51.038;7.216;2024-01-16T05:37:36;1.10;99.90
1129;DHT22;553;51.038;7.216;2024-01-16T05:40:03;1.10;99.90
1129;DHT22;553;51.038;7.216;2024-01-16T05:42:30;1.10;99.90
1129;DHT22;553;51.038;7.216;2024-01-16T05:44:57;1.10;99.90
1129;DHT22;553;51.038;7.216;2024-01-16T05:47:24;1.00;99.90
1129;DHT22;553;51.038;7.216;2024-01-16T05:49:54;1.00;99.90
1129;DHT22;553;51.038;7.216;2024-01-16T05:52:22;1.00;99.90
1129;DHT22;553;51.038;7.216;2024-01-16T05:54:49;0.90;99.90
1129;DHT22;553;51.038;7.216;2024-01-16T05:57:16;0.90;99.90
1129;DHT22;553;51.038;7.216;2024-01-16T05:59:42;0.90;99.90
1129;DHT22;553;51.038;7.216;2024-01-16T06:02:09;0.90;99.90
1129;DHT22;553;51.038;7.216;2024-01-16T06:04:37;0.90;99.90
1129;DHT22;553;51.038;7.216;2024-01-16T06:07:04;0.90;99.90
1129;DHT22;553;51.038;7.216;2024-01-16T06:09:33;0.90;99.90
1129;DHT22;553;51.038;7.216;2024-01-16T06:12:04;0.90;99.90
1129;DHT22;553;51.038;7.216;2024-01-16T06:14:32;0.90;99.90
1129;DHT22;553;51.038;7.216;2024-01-16T06:16:59;0.80;99.90
1129;DHT22;553;51.038;7.216;2024-01-16T06:19:26;0.90;99.90
1129;DHT22;553;51.038;7.216;2024-01-16T06:21:53;0.90;99.90
1129;DHT22;553;51.038;7.216;2024-01-16T06:24:20;1.00;99.90
1129;DHT22;553;51.038;7.216;2024-01-16T06:26:46;0.90;99.90
1129;DHT22;553;51.038;7.216;2024-01-16T06:29:13;1.00;99.90
1129;DHT22;553;51.038;7.216;2024-01-16T06:31:54;0.90;99.90
1129;DHT22;553;51.038;7.216;2024-01-16T06:34:20;0.90;99.90
1129;DHT22;553;51.038;7.216;2024-01-16T06:36:47;0.90;99.90
1129;DHT22;553;51.038;7.216;2024-01-16T06:39:14;0.80;99.90
1129;DHT22;553;51.038;7.216;2024-01-16T06:41:41;0.90;99.90
1129;DHT22;553;51.038;7.216;2024-01-16T06:44:08;0.90;99.90
1129;DHT22;553;51.038;7.216;2024-01-16T06:46:35;0.90;99.90
1129;DHT22;553;51.038;7.216;2024-01-16T06:49:01;0.90;99.90
1129;DHT22;553;51.038;7.216;2024-01-16T06:51:29;0.90;99.90
1129;DHT22;553;51.038;7.216;2024-01-16T06:53:55;0.90;99.90
1129;DHT22;553;51.038;7.216;2024-01-16T06:56:22;0.90;99.90
1129;DHT22;553;51.038;7.216;2024-01-16T06:58:51;1.00;99.90
1129;DHT22;553;51.038;7.216;2024-01-16T07:01:18;1.00;99.90
1129;DHT22;553;51.038;7.216;2024-01-16T07:03:45;1.00;99.90
1129;DHT22;553;51.038;7.216;2024-01-16T07:06:12;1.10;99.90
1129;DHT22;553;51.038;7.216;2024-01-16T07:08:39;1.00;99.90
1129;DHT22;553;51.038;7.216;2024-01-16T07:11:06;1.00;99.90
1129;DHT22;553;51.038;7.216;2024-01-16T07:13:35;1.10;99.90
1129;DHT22;553;51.038;7.216;2024-01-16T07:16:02;1.00;99.90
1129;DHT22;553;51.038;7.216;2024-01-16T07:18:29;1.10;99.90
1129;DHT22;553;51.038;7.216;2024-01-16T07:20:56;1.20;99.90
1129;DHT22;553;51.038;7.216;2024-01-16T07:23:23;1.20;99.90
1129;DHT22;553;51.038;7.216;2024-01-16T07:25:50;1.30;99.90
1129;DHT22;553;51.038;7.216;2024-01-16T07:28:17;1.20;99.90
1129;DHT22;553;51.038;7.216;2024-01-16T07:30:44;1.20;99.90
1129;DHT22;553;51.038;7.216;2024-01-16T07:33:10;1.20;99.90
1129;DHT22;553;51.038;7.216;2024-01-16T07:35:38;1.10;99.90
1129;DHT22;553;51.038;7.216;2024-01-16T07:38:07;1.10;99.90
1129;DHT22;553;51.038;7.216;2024-01-16T07:40:35;1.20;99.90
1129;DHT22;553;51.038;7.216;2024-01-16T07:43:01;1.10;99.90
1129;DHT22;553;51.038;7.216;2024-01-16T07:45:29;1.00;99.90
1129;DHT22;553;51.038;7.216;2024-01-16T07:47:56;1.10;99.90
1129;DHT22;553;51.038;7.216;2024-01-16T07:50:23;1.00;99.90
1129;DHT22;553;51.038;7.216;2024-01-16T07:52:50;1.10;99.90
1129;DHT22;553;51.038;7.216;2024-01-16T07:55:17;1.10;99.90
1129;DHT22;553;51.038;7.216;2024-01-16T07:57:47;1.10;99.90
1129;DHT22;553;51.038;7.216;2024-01-16T08:00:14;1.90;99.90
1129;DHT22;553;51.038;7.216;2024-01-16T08:02:42;4.70;99.90
1129;DHT22;553;51.038;7.216;2024-01-16T08:05:09;3.90;99.90
1129;DHT22;553;51.038;7.216;2024-01-16T08:07:36;3.50;99.90
1129;DHT22;553;51.038;7.216;2024-01-16T08:10:03;3.00;99.90
1129;DHT22;553;51.038;7.216;2024-01-16T08:12:31;2.60;99.90
1129;DHT22;553;51.038;7.216;2024-01-16T08:14:58;2.40;99.90
1129;DHT22;553;51.038;7.216;2024-01-16T08:17:24;2.10;99.90
1129;DHT22;553;51.038;7.216;2024-01-16T08:19:51;2.00;99.90
1129;DHT22;553;51.038;7.216;2024-01-16T08:22:18;1.90;99.90
1129;DHT22;553;51.038;7.216;2024-01-16T08:24:45;1.80;99.90
1129;DHT22;553;51.038;7.216;2024-01-16T08:27:11;1.70;99.90
1129;DHT22;553;51.038;7.216;2024-01-16T08:29:39;1.70;99.90
1129;DHT22;553;51.038;7.216;2024-01-16T08:32:06;1.50;99.90
1129;DHT22;553;51.038;7.216;2024-01-16T08:34:34;1.40;99.90
1129;DHT22;553;51.038;7.216;2024-01-16T08:37:01;1.50;99.90
1129;DHT22;553;51.038;7.216;2024-01-16T08:39:27;1.60;99.90
1129;DHT22;553;51.038;7.216;2024-01-16T08:41:55;1.50;99.90
1129;DHT22;553;51.038;7.216;2024-01-16T08:44:24;1.40;99.90
1129;DHT22;553;51.038;7.216;2024-01-16T08:46:50;1.40;99.90
1129;DHT22;553;51.038;7.216;2024-01-16T08:49:17;1.30;99.90
1129;DHT22;553;51.038;7.216;2024-01-16T08:51:47;1.20;99.90
1129;DHT22;553;51.038;7.216;2024-01-16T08:54:14;1.20;99.90
1129;DHT22;553;51.038;7.216;2024-01-16T08:56:40;1.30;99.90
1129;DHT22;553;51.038;7.216;2024-01-16T08:59:07;1.40;99.90
1129;DHT22;553;51.038;7.216;2024-01-16T09:01:35;2.20;99.90
1129;DHT22;553;51.038;7.216;2024-01-16T09:04:01;2.10;99.90
1129;DHT22;553;51.038;7.216;2024-01-16T09:06:28;1.60;99.90
1129;DHT22;553;51.038;7.216;2024-01-16T09:08:55;1.40;99.90
1129;DHT22;553;51.038;7.216;2024-01-16T09:11:22;1.50;99.90
1129;DHT22;553;51.038;7.216;2024-01-16T09:13:49;1.40;99.90
1129;DHT22;553;51.038;7.216;2024-01-16T09:16:16;1.50;99.90
1129;DHT22;553;51.038;7.216;2024-01-16T09:18:43;1.40;99.90
1129;DHT22;553;51.038;7.216;2024-01-16T09:21:10;1.50;99.90
1129;DHT22;553;51.038;7.216;2024-01-16T09:23:37;1.60;99.90
1129;DHT22;553;51.038;7.216;2024-01-16T09:26:04;1.70;99.90
1129;DHT22;553;51.038;7.216;2024-01-16T09:28:31;1.70;99.90
1129;DHT22;553;51.038;7.216;2024-01-16T09:30:57;1.70;99.90
1129;DHT22;553;51.038;7.216;2024-01-16T09:33:24;1.60;99.90
1129;DHT22;553;51.038;7.216;2024-01-16T09:35:52;1.70;99.90
1129;DHT22;553;51.038;7.216;2024-01-16T09:38:19;1.70;99.90
1129;DHT22;553;51.038;7.216;2024-01-16T09:40:49;1.50;99.90
1129;DHT22;553;51.038;7.216;2024-01-16T09:43:17;1.50;99.90
1129;DHT22;553;51.038;7.216;2024-01-16T09:45:45;1.50;99.90
1129;DHT22;553;51.038;7.216;2024-01-16T09:48:14;1.50;99.90
1129;DHT22;553;51.038;7.216;2024-01-16T09:50:42;1.50;99.90
1129;DHT22;553;51.038;7.216;2024-01-16T09:53:08;1.50;99.90
1129;DHT22;553;51.038;7.216;2024-01-16T09:55:35;1.50;99.90
1129;DHT22;553;51.038;7.216;2024-01-16T09:58:02;1.40;99.90
1129;DHT22;553;51.038;7.216;2024-01-16T10:00:31;1.50;99.90
1129;DHT22;553;51.038;7.216;2024-01-16T10:02:59;1.50;99.90
1129;DHT22;553;51.038;7.216;2024-01-16T10:05:27;1.60;99.90
1129;DHT22;553;51.038;7.216;2024-01-16T10:07:54;1.70;99.90
1129;DHT22;553;51.038;7.216;2024-01-16T10:10:21;1.70;99.90
1129;DHT22;553;51.038;7.216;2024-01-16T10:13:04;1.70;99.90
1129;DHT22;553;51.038;7.216;2024-01-16T10:15:31;1.70;99.90
1129;DHT22;553;51.038;7.216;2024-01-16T10:17:58;1.60;99.90
1129;DHT22;553;51.038;7.216;2024-01-16T10:20:33;1.60;99.90
1129;DHT22;553;51.038;7.216;2024-01-16T10:23:01;1.70;99.90
1129;DHT22;553;51.038;7.216;2024-01-16T10:25:30;1.60;99.90
1129;DHT22;553;51.038;7.216;2024-01-16T10:28:04;1.70;99.90
1129;DHT22;553;51.038;7.216;2024-01-16T10:30:31;1.70;99.90
1129;DHT22;553;51.038;7.216;2024-01-16T10:33:15;1.80;99.90
1129;DHT22;553;51.038;7.216;2024-01-16T10:35:44;1.80;99.90
1129;DHT22;553;51.038;7.216;2024-01-16T10:38:20;1.70;99.90
1129;DHT22;553;51.038;7.216;2024-01-16T10:40:47;1.70;99.90
1129;DHT22;553;51.038;7.216;2024-01-16T10:43:17;2.60;99.90
1129;DHT22;553;51.038;7.216;2024-01-16T10:45:44;3.90;99.90
1129;DHT22;553;51.038;7.216;2024-01-16T10:48:11;4.90;99.90
1129;DHT22;553;51.038;7.216;2024-01-16T10:50:38;4.50;95.70
1129;DHT22;553;51.038;7.216;2024-01-16T10:53:08;4.00;97.40
1129;DHT22;553;51.038;7.216;2024-01-16T10:55:48;3.50;98.20
1129;DHT22;553;51.038;7.216;2024-01-16T10:58:16;3.20;99.20
1129;DHT22;553;51.038;7.216;2024-01-16T11:00:47;2.90;99.90
1129;DHT22;553;51.038;7.216;2024-01-16T11:06:00;2.70;99.90
1129;DHT22;553;51.038;7.216;2024-01-16T11:08:30;6.70;92.40
1129;DHT22;553;51.038;7.216;2024-01-16T11:11:00;5.90;91.40
1129;DHT22;553;51.038;7.216;2024-01-16T11:13:28;4.90;93.20
1129;DHT22;553;51.038;7.216;2024-01-16T11:15:56;4.10;95.40
1129;DHT22;553;51.038;7.216;2024-01-16T11:18:25;3.60;97.40
1129;DHT22;553;51.038;7.216;2024-01-16T11:20:54;3.40;99.40
1129;DHT22;553;51.038;7.216;2024-01-16T11:23:33;3.10;99.90
1129;DHT22;553;51.038;7.216;2024-01-16T11:26:33;2.70;99.90
1129;DHT22;553;51.038;7.216;2024-01-16T11:31:55;4.30;99.90
1129;DHT22;553;51.038;7.216;2024-01-16T11:37:25;5.00;98.00
1129;DHT22;553;51.038;7.216;2024-01-16T11:40:20;4.30;95.60
1129;DHT22;553;51.038;7.216;2024-01-16T11:42:49;3.30;97.80
1129;DHT22;553;51.038;7.216;2024-01-16T11:48:11;2.50;99.60
1129;DHT22;553;51.038;7.216;2024-01-16T11:50:38;2.40;99.90
1129;DHT22;553;51.038;7.216;2024-01-16T11:53:05;2.40;99.90
1129;DHT22;553;51.038;7.216;2024-01-16T12:01:20;2.40;99.90
1129;DHT22;553;51.038;7.216;2024-01-16T12:04:05;2.50;99.90
1129;DHT22;553;51.038;7.216;2024-01-16T12:06:33;2.60;99.90
1129;DHT22;553;51.038;7.216;2024-01-16T12:09:13;2.70;99.90
1129;DHT22;553;51.038;7.216;2024-01-16T12:11:41;2.60;99.90
1129;DHT22;553;51.038;7.216;2024-01-16T12:14:10;3.90;99.90
1129;DHT22;553;51.038;7.216;2024-01-16T12:16:37;3.80;99.40
1129;DHT22;553;51.038;7.216;2024-01-16T12:19:07;3.50;99.00
1129;DHT22;553;51.038;7.216;2024-01-16T12:21:41;3.20;99.90
1129;DHT22;553;51.038;7.216;2024-01-16T12:24:08;2.80;99.30
1129;DHT22;553;51.038;7.216;2024-01-16T12:26:40;2.60;99.90
1129;DHT22;553;51.038;7.216;2024-01-16T12:29:08;2.50;99.90
1129;DHT22;553;51.038;7.216;2024-01-16T12:31:35;2.20;99.90
1129;DHT22;553;51.038;7.216;2024-01-16T12:34:06;2.10;99.90
1129;DHT22;553;51.038;7.216;2024-01-16T12:36:37;2.00;99.90
1129;DHT22;553;51.038;7.216;2024-01-16T12:39:04;2.20;99.90
1129;DHT22;553;51.038;7.216;2024-01-16T12:41:37;2.20;99.90
1129;DHT22;553;51.038;7.216;2024-01-16T12:44:09;2.30;99.90
1129;DHT22;553;51.038;7.216;2024-01-16T12:46:58;2.30;99.90
1129;DHT22;553;51.038;7.216;2024-01-16T12:49:28;2.20;99.90
1129;DHT22;553;51.038;7.216;2024-01-16T12:52:18;2.40;99.90
1129;DHT22;553;51.038;7.216;2024-01-16T12:54:58;2.30;99.90
1129;DHT22;553;51.038;7.216;2024-01-16T12:57:26;2.30;99.90
1129;DHT22;553;51.038;7.216;2024-01-16T12:59:53;2.30;99.90
1129;DHT22;553;51.038;7.216;2024-01-16T13:02:24;2.40;99.90
1129;DHT22;553;51.038;7.216;2024-01-16T13:04:58;2.50;99.90
1129;DHT22;553;51.038;7.216;2024-01-16T13:07:26;2.30;99.90
1129;DHT22;553;51.038;7.216;2024-01-16T13:10:10;2.30;99.90
1129;DHT22;553;51.038;7.216;2024-01-16T13:12:45;2.40;99.90
1129;DHT22;553;51.038;7.216;2024-01-16T13:15:12;2.50;99.90
1129;DHT22;553;51.038;7.216;2024-01-16T13:17:43;2.50;99.90
1129;DHT22;553;51.038;7.216;2024-01-16T13:20:10;2.40;99.90
1129;DHT22;553;51.038;7.216;2024-01-16T13:22:40;2.30;99.90
1129;DHT22;553;51.038;7.216;2024-01-16T13:25:13;2.30;99.90
1129;DHT22;553;51.038;7.216;2024-01-16T13:27:40;2.30;99.90
1129;DHT22;553;51.038;7.216;2024-01-16T13:30:07;2.40;99.90
1129;DHT22;553;51.038;7.216;2024-01-16T13:32:35;2.40;99.90
1129;DHT22;553;51.038;7.216;2024-01-16T13:35:04;2.40;99.90
1129;DHT22;553;51.038;7.216;2024-01-16T13:37:35;2.20;99.90
1129;DHT22;553;51.038;7.216;2024-01-16T13:40:05;2.20;99.90
1129;DHT22;553;51.038;7.216;2024-01-16T13:42:46;2.10;99.90
1129;DHT22;553;51.038;7.216;2024-01-16T13:45:13;2.10;99.90
1129;DHT22;553;51.038;7.216;2024-01-16T13:47:40;2.20;99.90
1129;DHT22;553;51.038;7.216;2024-01-16T13:50:08;2.30;99.90
1129;DHT22;553;51.038;7.216;2024-01-16T13:52:38;2.40;99.90
1129;DHT22;553;51.038;7.216;2024-01-16T13:55:07;2.40;99.90
1129;DHT22;553;51.038;7.216;2024-01-16T13:57:35;2.30;99.90
1129;DHT22;553;51.038;7.216;2024-01-16T14:00:07;2.40;99.90
1129;DHT22;553;51.038;7.216;2024-01-16T14:02:44;2.40;99.90
1129;DHT22;553;51.038;7.216;2024-01-16T14:05:13;2.30;99.90
1129;DHT22;553;51.038;7.216;2024-01-16T14:07:45;2.20;99.90
1129;DHT22;553;51.038;7.216;2024-01-16T14:10:14;2.30;99.90
1129;DHT22;553;51.038;7.216;2024-01-16T14:12:44;2.20;99.90
1129;DHT22;553;51.038;7.216;2024-01-16T14:15:12;2.20;99.90
1129;DHT22;553;51.038;7.216;2024-01-16T14:17:47;2.30;99.90
1129;DHT22;553;51.038;7.216;2024-01-16T14:20:15;2.40;99.90
1129;DHT22;553;51.038;7.216;2024-01-16T14:22:42;2.40;99.90
1129;DHT22;553;51.038;7.216;2024-01-16T14:25:11;2.50;99.90
1129;DHT22;553;51.038;7.216;2024-01-16T14:27:40;2.50;99.20
1129;DHT22;553;51.038;7.216;2024-01-16T14:30:11;2.50;98.80
1129;DHT22;553;51.038;7.216;2024-01-16T14:32:44;2.40;99.30
1129;DHT22;553;51.038;7.216;2024-01-16T14:35:14;2.40;99.60
1129;DHT22;553;51.038;7.216;2024-01-16T14:37:41;2.40;98.90
1129;DHT22;553;51.038;7.216;2024-01-16T14:40:08;2.40;98.80
1129;DHT22;553;51.038;7.216;2024-01-16T14:42:39;2.40;99.40
1129;DHT22;553;51.038;7.216;2024-01-16T14:45:07;2.40;98.70
1129;DHT22;553;51.038;7.216;2024-01-16T14:47:34;2.40;99.30
1129;DHT22;553;51.038;7.216;2024-01-16T14:50:01;2.40;99.30
1129;DHT22;553;51.038;7.216;2024-01-16T14:52:30;2.20;99.30
1129;DHT22;553;51.038;7.216;2024-01-16T14:55:00;2.30;99.30
1129;DHT22;553;51.038;7.216;2024-01-16T14:57:27;2.20;99.10
1129;DHT22;553;51.038;7.216;2024-01-16T14:59:57;2.10;98.40
1129;DHT22;553;51.038;7.216;2024-01-16T15:02:24;2.10;99.50
1129;DHT22;553;51.038;7.216;2024-01-16T15:04:51;2.00;99.30
1129;DHT22;553;51.038;7.216;2024-01-16T15:07:18;2.00;99.90
1129;DHT22;553;51.038;7.216;2024-01-16T15:09:45;1.90;99.20
1129;DHT22;553;51.038;7.216;2024-01-16T15:12:12;2.00;99.70
1129;DHT22;553;51.038;7.216;2024-01-16T15:14:40;1.80;99.50
1129;DHT22;553;51.038;7.216;2024-01-16T15:17:07;1.80;99.40
1129;DHT22;553;51.038;7.216;2024-01-16T15:19:36;1.80;99.50
1129;DHT22;553;51.038;7.216;2024-01-16T15:22:04;1.70;99.00
1129;DHT22;553;51.038;7.216;2024-01-16T15:24:31;1.70;98.60
1129;DHT22;553;51.038;7.216;2024-01-16T15:26:58;1.60;99.20
1129;DHT22;553;51.038;7.216;2024-01-16T15:29:25;1.50;99.20
1129;DHT22;553;51.038;7.216;2024-01-16T15:31:52;1.60;99.20
1129;DHT22;553;51.038;7.216;2024-01-16T15:34:19;1.50;99.30
1129;DHT22;553;51.038;7.216;2024-01-16T15:36:47;1.50;99.60
1129;DHT22;553;51.038;7.216;2024-01-16T15:39:14;1.50;99.60
1129;DHT22;553;51.038;7.216;2024-01-16T15:41:44;1.50;99.60
1129;DHT22;553;51.038;7.216;2024-01-16T15:44:11;1.40;99.90
1129;DHT22;553;51.038;7.216;2024-01-16T15:47:00;1.50;99.80
1129;DHT22;553;51.038;7.216;2024-01-16T15:49:28;1.50;99.80
1129;DHT22;553;51.038;7.216;2024-01-16T15:51:55;1.50;99.10
1129;DHT22;553;51.038;7.216;2024-01-16T15:54:23;1.40;99.40
1129;DHT22;553;51.038;7.216;2024-01-16T15:56:50;1.40;99.60
1129;DHT22;553;51.038;7.216;2024-01-16T15:59:18;1.40;99.70
1129;DHT22;553;51.038;7.216;2024-01-16T16:01:45;1.20;99.00
1129;DHT22;553;51.038;7.216;2024-01-16T16:04:12;1.10;99.90
1129;DHT22;553;51.038;7.216;2024-01-16T16:06:39;1.10;99.90
1129;DHT22;553;51.038;7.216;2024-01-16T16:09:06;1.10;99.90
1129;DHT22;553;51.038;7.216;2024-01-16T16:11:38;1.10;99.90
1129;DHT22;553;51.038;7.216;2024-01-16T16:14:08;1.20;99.90
1129;DHT22;553;51.038;7.216;2024-01-16T16:16:35;1.10;99.90
1129;DHT22;553;51.038;7.216;2024-01-16T16:19:03;1.00;99.60
1129;DHT22;553;51.038;7.216;2024-01-16T16:21:30;0.80;99.70
1129;DHT22;553;51.038;7.216;2024-01-16T16:23:57;0.80;99.90
1129;DHT22;553;51.038;7.216;2024-01-16T16:26:35;0.70;99.90
1129;DHT22;553;51.038;7.216;2024-01-16T16:29:07;0.60;99.90
1129;DHT22;553;51.038;7.216;2024-01-16T16:31:37;0.40;99.90
1129;DHT22;553;51.038;7.216;2024-01-16T16:34:06;0.40;99.90
1129;DHT22;553;51.038;7.216;2024-01-16T16:36:34;0.30;99.90
1129;DHT22;553;51.038;7.216;2024-01-16T16:39:01;0.20;99.90
1129;DHT22;553;51.038;7.216;2024-01-16T16:41:29;0.20;99.90
1129;DHT22;553;51.038;7.216;2024-01-16T16:43:55;0.10;99.90
1129;DHT22;553;51.038;7.216;2024-01-16T16:46:22;0.00;99.90
1129;DHT22;553;51.038;7.216;2024-01-16T16:48:49;-0.10;99.90
1129;DHT22;553;51.038;7.216;2024-01-16T16:51:19;-0.20;99.90
1129;DHT22;553;51.038;7.216;2024-01-16T16:53:46;-0.20;99.90
1129;DHT22;553;51.038;7.216;2024-01-16T16:56:17;-0.10;99.90
1129;DHT22;553;51.038;7.216;2024-01-16T16:58:48;-0.10;99.90